This is the latest recevied weather packets stored in our database for station/object KFSM. If no packets are shown the sender has not sent any weather packets the latest 1 day(s).
| Time | Temp. | Humidity | Pressure | Rain* | Wind** | Luminosity | Snow |
|---|---|---|---|---|---|---|---|
| 1778003006 | 23.89° C | 73% | 1004.4 hPa | - | 4.47 m/s, 190° | - | - |
| 1778002408 | 23.89° C | 73% | 1004.4 hPa | - | 4.47 m/s, 190° | - | - |
| 1778001808 | 23.89° C | 73% | 1004.4 hPa | - | 4.47 m/s, 190° | - | - |
| 1778001214 | 25° C | 69% | 1004.4 hPa | - | 2.68 m/s, 180° | - | - |
| 1778000611 | 25° C | 69% | 1004.4 hPa | - | 2.68 m/s, 180° | - | - |
| 1778000011 | 21.67° C | 83% | 1004.7 hPa | - | 3.58 m/s, 110° | - | - |
| 1777999413 | 21.67° C | 83% | 1004.7 hPa | - | 3.58 m/s, 110° | - | - |
| 1777998809 | 21.67° C | 83% | 1004.7 hPa | - | 3.58 m/s, 110° | - | - |
| 1777998212 | 21.67° C | 83% | 1004.7 hPa | - | 3.58 m/s, 110° | - | - |
| 1777997609 | 21.67° C | 83% | 1004.7 hPa | - | 3.58 m/s, 110° | - | - |
| 1777997017 | 21.67° C | 83% | 1004.7 hPa | - | 3.58 m/s, 110° | - | - |
| 1777996413 | 18.89° C | 93% | 1005.1 hPa | - | 4.02 m/s, 80° | - | - |
| 1777995930 | 18.89° C | 93% | 1005.1 hPa | - | 4.02 m/s, 80° | - | - |
| 1777995209 | 18.89° C | 93% | 1005.1 hPa | - | 4.02 m/s, 80° | - | - |
| 1777994611 | 18.89° C | 93% | 1005.1 hPa | - | 4.02 m/s, 80° | - | - |
| 1777994010 | 18.89° C | 93% | 1005.1 hPa | - | 4.02 m/s, 80° | - | - |
| 1777993408 | 18.89° C | 93% | 1005.4 hPa | - | 4.02 m/s, 80° | - | - |
| 1777992809 | 17.78° C | 100% | 1005.4 hPa | - | 4.47 m/s, 70° | - | - |
| 1777992208 | 17.78° C | 100% | 1005.4 hPa | - | 4.47 m/s, 70° | - | - |
| 1777991607 | 17.78° C | 100% | 1005.4 hPa | - | 4.47 m/s, 70° | - | - |
| 1777991009 | 17.78° C | 100% | 1005.4 hPa | - | 4.47 m/s, 70° | - | - |
| 1777990408 | 17.78° C | 93% | 1005.4 hPa | - | 4.02 m/s, 80° | - | - |
| 1777989808 | 17.78° C | 93% | 1005.4 hPa | - | 4.02 m/s, 80° | - | - |
| 1777989207 | 17.78° C | 93% | 1005.8 hPa | - | 3.58 m/s, 90° | - | - |
| 1777988610 | 18.89° C | 82% | 1005.1 hPa | - | 5.81 m/s, 70° | - | - |
* Rain since midnight (hover to see other rain measurements)
** Current wind speed in m/s (hover to see current wind gust speed)